x

East Bahamas - 335 Nm East Of San Salvador Is, Bahamas (41046) Wave Buoy

5:50pm - Thu 29th Jan 2015 All times are UTC.

  • Sig Wave height 9.5ft
  • Swell Direction
  • Peak Period 11s
  • Average Period 7s
  • Wind
    20mph, 22mph gusts
  • Sea Temp 78°f
  • Air Temp 73°f
  • Sea Pressure 1017.8mb

More Historic Weather Station data

Upgrade to MSW Pro to gain access to the past 30 days of data for over 8000 Wavebouys and Weather Stations around the globe.

Join Pro

Comparision Forecast

View Surf forecast
   
Thu 01/29 5:50pm 9.5ft 11s 7s 20 22 mph 1017.8mb 78f 73f
4:50pm 9ft 10s 7s 20 25 mph 1018.4mb 78f 73f
3:50pm 8.5ft 12s 7s 22 27 mph 1019.1mb 78f 73f
2:50pm 9ft 10s 7s 18 22 mph 1019.5mb 78f 73f
1:50pm 8ft 11s 7s 20 25 mph 1018.7mb 78f 73f
12:50pm 7.5ft 11s 7s 20 25 mph 1018.3mb 78f 73f
11:50am 8ft 11s 7s 20 25 mph 1017.5mb 78f 73f
10:50am 7ft 11s 8s 20 25 mph 1017mb 78f 73f
9:50am 8ft 11s 8s 13 18 mph 1016.3mb 78f 74f
8:50am 8.5ft 11s 8s 13 16 mph 1016mb 78f 74f
7:50am 9ft 11s 8s 13 18 mph 1016.2mb 78f 74f
6:50am 10ft 12s 8s 11 13 mph 1016.3mb 78f 75f
5:50am 9ft 11s 8s 13 16 mph 1016.7mb 78f 75f
4:50am 9ft 11s 8s 13 18 mph 1016.9mb 78f 75f
3:50am 9ft 12s 8s 16 18 mph 1016.9mb 78f 75f
2:50am 9ft 11s 8s 11 16 mph 1016.9mb 78f 76f
1:50am 8ft 11s 8s 11 16 mph 1016.5mb 78f 76f
12:50am 9ft 11s 9s 9 13 mph 1016.5mb 78f 75f
Wed 01/28 11:50pm 9ft 11s 8s 9 11 mph 1016.1mb 78f 75f
10:50pm 9ft 11s 8s 4 9 mph 1015.7mb 79f 75f
9:50pm 9.5ft 11s 8s 7 13 mph 1015.6mb 79f 75f
8:50pm 9ft 11s 8s 9 11 mph 1015.1mb 79f 75f
7:50pm 9ft 11s 8s 9 11 mph 1015mb 79f 75f
6:50pm 9ft 11s 8s 4 9 mph 1015.3mb 79f 75f
5:50pm 10ft 11s 8s 9 13 mph 1015.5mb 79f 75f
4:50pm 10ft 11s 8s 7 11 mph 1016.4mb 79f 75f
3:50pm 9ft 11s 8s 9 11 mph 1016.9mb 79f 75f
2:50pm 10ft 12s 8s 9 13 mph 1017.5mb 79f 76f
1:50pm 9ft 11s 8s 9 11 mph 1017.2mb 79f 76f
12:50pm 10ft 11s 8s 9 11 mph 1016.4mb 79f 76f
11:50am 10ft 11s 8s 11 16 mph 1015.9mb 79f 76f
10:50am 9.5ft 11s 8s 9 11 mph 1015.2mb 78f 76f
9:50am 10ft 11s 8s 11 13 mph 1014.6mb 78f 76f
8:50am 10ft 11s 8s 9 11 mph 1014.4mb 78f 76f
7:50am 10ft 11s 8s 11 13 mph 1014.3mb 78f 76f
6:50am 10ft 11s 8s 9 13 mph 1014.6mb 78f 76f
5:50am 9.5ft 11s 8s 9 11 mph 1015mb 78f 76f
4:50am 9ft 11s 7s 11 13 mph 1015.2mb 78f 76f
3:50am 9ft 9s 7s 13 16 mph 1015.3mb 78f 76f
2:50am 8ft 10s 7s 11 16 mph 1015.3mb 78f 76f
1:50am 8.5ft 9s 7s 13 16 mph 1015mb 78f 76f
12:50am 7.5ft 6s 6s 13 18 mph 1015mb 78f 77f
Tue 01/27 11:50pm 8ft 9s 6s 16 20 mph 1014.4mb 78f 77f
10:50pm 7.5ft 7s 6s 18 20 mph 1013.8mb 78f 77f
9:50pm 8ft 9s 6s 16 20 mph 1013.2mb 79f 78f
8:50pm 7.5ft 9s 6s 20 22 mph 1012.4mb 79f 78f
7:50pm 7ft 9s 6s 18 20 mph 1012.1mb 79f 79f
6:50pm 6.5ft 7s 6s 11 18 mph 1012.3mb 79f 77f
5:50pm 6.5ft 7s 6s 13 18 mph 1012.7mb 79f 74f
4:50pm 6.5ft 6s 6s 16 18 mph 1013mb 79f 77f
3:50pm 6ft 7s 6s 16 20 mph 1013.6mb 79f 78f
2:50pm 7ft 6s 6s 16 18 mph 1013.4mb 79f 78f
1:50pm 6ft 6s 6s 18 20 mph 1013.6mb 78f 78f
12:50pm 6.5ft 7s 6s 13 18 mph 1013.1mb 78f 77f
11:50am 6.5ft 6s 6s 11 16 mph 1012.9mb 78f 73f
10:50am 6.5ft 7s 5s 20 27 mph 1012.1mb 79f 72f
9:50am 7ft 6s 6s 20 27 mph 1011.3mb 79f 78f
8:50am 6.5ft 6s 5s 25 29 mph 1010.8mb 79f 78f
7:50am 6.5ft 6s 5s 27 31 mph 1010.8mb 79f 78f
6:50am 7ft 6s 6s 25 29 mph 1011.4mb 79f 78f
5:50am 6ft 6s 5s 25 31 mph 1011.9mb 79f 78f
4:50am 6ft 6s 5s 25 29 mph 1012.3mb 79f 78f
3:50am 6ft 6s 5s 22 27 mph 1012.8mb 79f 78f
2:50am 6ft 6s 5s 20 27 mph 1013.4mb 79f 78f
1:50am 6ft 9s 5s 25 27 mph 1013.1mb 79f 79f
12:50am 6ft 9s 5s 22 27 mph 1013.3mb 79f 78f
Mon 01/26 11:50pm 6ft 6s 5s 22 27 mph 1013mb 79f 78f
10:50pm 6ft 10s 5s 22 25 mph 1012.8mb 79f 78f
9:50pm 6ft 10s 5s 22 27 mph 1012.8mb 79f 78f
8:50pm 5.5ft 10s 6s 22 27 mph 1012.3mb 79f 79f
7:50pm 6ft 10s 6s 22 27 mph 1012.2mb 79f 78f
6:50pm 5ft 10s 6s 22 27 mph 1012.8mb 79f 79f
5:50pm 5ft 10s 6s 18 22 mph 1013.8mb 79f 79f
4:50pm 5ft 9s 6s 18 22 mph 1014.8mb 79f 78f
3:50pm 5ft 9s 6s 18 22 mph 1015.4mb 79f 78f
2:50pm 4.5ft 10s 6s 18 20 mph 1016mb 79f 78f
1:50pm 4.5ft 10s 6s 18 20 mph 1015.9mb 79f 78f
12:50pm 5ft 11s 6s 16 20 mph 1015.4mb 79f 78f
11:50am 4.5ft 10s 6s 16 20 mph 1014.9mb 79f 78f
10:50am 4.5ft 11s 7s 11 13 mph 1014.7mb 79f 78f
9:50am 4ft 11s 6s 13 16 mph 1014.5mb 79f 78f
8:50am 3.5ft 11s 6s 13 16 mph 1013.9mb 79f 78f
7:50am 3.5ft 11s 6s 11
mph
1014.4mb 79f 77f
6:50am 3.5ft 12s 6s 9 11 mph 1015mb 79f 78f
5:50am 3.5ft 11s 6s 9
mph
1015.4mb 79f 78f
4:50am 3.5ft 9s 5s 7 9 mph 1015.8mb 79f 78f
3:50am 3.5ft 9s 5s 9
mph
1016.1mb 79f 78f
2:50am 3.5ft 9s 5s 9 11 mph 1016.2mb 79f 78f
1:50am 3.5ft 9s 5s 11 13 mph 1016mb 79f 78f
12:50am 3.5ft 11s 5s 13 16 mph 1015.8mb 79f 78f
Sun 01/25 11:50pm 3.5ft 9s 5s 11 13 mph 1015.7mb 79f 78f
10:50pm 3.5ft 9s 5s 13 16 mph 1015.2mb 79f 78f
9:50pm 3.5ft 9s 6s 13 16 mph 1014.8mb 79f 78f
8:50pm 3.5ft 8s 5s 11 13 mph 1014.5mb 79f 79f
7:50pm 3.5ft 10s 5s 11 13 mph 1014.5mb 79f 79f
6:50pm 3ft 11s 5s 13 16 mph 1014.6mb 79f 79f